createdAt,value
2018-03-20T00:00:52.290Z,57.60
2018-03-20T00:05:55.439Z,57.50
2018-03-20T00:10:58.004Z,57.90
2018-03-20T00:16:00.588Z,58.20
2018-03-20T00:21:03.937Z,58.10
2018-03-20T00:26:06.517Z,58.10
2018-03-20T00:36:26.485Z,58.70
2018-03-20T00:41:29.071Z,58.30
2018-03-20T00:46:32.115Z,58.60
2018-03-20T00:51:34.697Z,58.50
2018-03-20T00:56:39.789Z,58.00
2018-03-20T01:01:42.403Z,57.80
2018-03-20T01:06:45.586Z,58.70
2018-03-20T01:11:48.178Z,58.50
2018-03-20T01:16:50.761Z,58.30
2018-03-20T01:21:53.350Z,57.70
2018-03-20T01:26:57.272Z,57.10
2018-03-20T01:31:59.848Z,57.10
2018-03-20T01:37:02.890Z,57.30
2018-03-20T01:42:06.241Z,57.90
2018-03-20T01:47:08.838Z,57.90
2018-03-20T01:52:11.920Z,57.50
2018-03-20T01:57:15.266Z,57.10
2018-03-20T02:02:17.858Z,57.10
2018-03-20T02:07:20.472Z,56.90
2018-03-20T02:12:23.696Z,56.70
2018-03-20T02:17:26.953Z,56.20
2018-03-20T02:22:29.997Z,55.60
2018-03-20T02:27:32.719Z,55.20
2018-03-20T02:32:35.318Z,55.20
2018-03-20T02:37:37.980Z,55.00
2018-03-20T02:42:40.557Z,55.30
2018-03-20T02:47:43.163Z,55.20
2018-03-20T02:52:45.759Z,54.90
2018-03-20T02:57:48.881Z,55.20
2018-03-20T03:02:51.474Z,55.10
2018-03-20T03:07:54.631Z,55.50
2018-03-20T03:12:58.401Z,55.10
2018-03-20T03:18:02.147Z,54.40
2018-03-20T03:23:04.753Z,54.10
2018-03-20T03:28:07.325Z,54.60
2018-03-20T03:33:11.051Z,54.70
2018-03-20T03:38:14.401Z,54.90
2018-03-20T03:43:16.978Z,54.90
2018-03-20T03:48:19.581Z,55.30
2018-03-20T03:53:22.173Z,55.30
2018-03-20T03:58:24.782Z,56.00
2018-03-20T04:03:28.258Z,55.30
2018-03-20T04:08:31.399Z,54.50
2018-03-20T04:13:37.861Z,54.70
2018-03-20T04:18:40.448Z,54.70
2018-03-20T04:23:43.674Z,54.20
2018-03-20T04:28:49.805Z,53.10
2018-03-20T04:33:52.385Z,53.60
2018-03-20T04:38:56.165Z,52.80
2018-03-20T04:43:59.629Z,52.80
2018-03-20T04:49:05.571Z,52.90
2018-03-20T04:54:08.157Z,52.80
2018-03-20T04:59:11.235Z,52.30
2018-03-20T05:04:14.703Z,51.80
2018-03-20T05:09:17.383Z,51.80
2018-03-20T05:14:20.067Z,51.60
2018-03-20T05:25:03.583Z,49.80
2018-03-20T05:30:06.285Z,49.00
2018-03-20T05:35:08.973Z,49.70
2018-03-20T05:40:11.672Z,49.20
2018-03-20T05:45:14.373Z,48.70
2018-03-20T05:55:52.745Z,48.20
2018-03-20T06:00:55.459Z,48.20
2018-03-20T06:05:58.144Z,48.00
2018-03-20T06:11:00.836Z,47.70
2018-03-20T06:16:03.512Z,47.90
2018-03-20T06:21:06.220Z,50.00
2018-03-20T06:26:09.677Z,46.90
2018-03-20T06:31:12.937Z,46.80
2018-03-20T06:36:16.105Z,46.90
2018-03-20T06:41:19.372Z,55.50
2018-03-20T06:46:21.958Z,45.10
2018-03-20T06:51:25.127Z,42.70
2018-03-20T06:56:27.701Z,43.40
2018-03-20T07:01:31.037Z,44.00
2018-03-20T07:06:33.630Z,43.90
2018-03-20T07:11:36.220Z,44.40
2018-03-20T07:16:39.553Z,45.60
2018-03-20T07:21:42.941Z,45.50
2018-03-20T07:26:45.515Z,44.80
2018-03-20T07:31:54.801Z,44.80
2018-03-20T07:36:58.596Z,44.90
2018-03-20T07:42:01.886Z,45.40
2018-03-20T07:47:04.476Z,44.40
2018-03-20T07:52:07.054Z,44.20
2018-03-20T07:57:10.404Z,44.30
2018-03-20T08:02:15.604Z,44.20
2018-03-20T08:07:18.522Z,43.90
2018-03-20T08:12:21.135Z,43.70
2018-03-20T08:17:25.046Z,41.60
2018-03-20T08:22:27.645Z,41.50
2018-03-20T08:27:30.217Z,41.60
2018-03-20T08:32:35.432Z,41.10
2018-03-20T08:37:39.341Z,40.40
2018-03-20T08:42:41.913Z,40.30
2018-03-20T08:47:44.497Z,38.70
2018-03-20T08:52:47.098Z,37.80
2018-03-20T08:57:52.791Z,37.60
2018-03-20T09:02:56.205Z,36.40
2018-03-20T09:07:59.546Z,28.50
2018-03-20T09:13:02.159Z,28.80
2018-03-20T09:18:08.598Z,27.70
2018-03-20T09:23:11.478Z,27.70
2018-03-20T09:28:14.531Z,29.40
2018-03-20T09:33:17.100Z,32.30
2018-03-20T09:38:20.233Z,34.20
2018-03-20T09:43:23.137Z,35.70
2018-03-20T09:48:25.714Z,36.30
2018-03-20T09:53:29.454Z,36.00
2018-03-20T09:58:32.304Z,35.90
2018-03-20T10:03:34.904Z,36.10
2018-03-20T10:08:38.560Z,39.60
2018-03-20T10:13:41.992Z,39.00
2018-03-20T10:18:44.576Z,37.90
2018-03-20T10:23:47.164Z,37.80
2018-03-20T10:28:50.214Z,38.00
2018-03-20T10:33:52.784Z,38.40
2018-03-20T10:38:56.017Z,38.60
2018-03-20T10:43:58.596Z,37.80
2018-03-20T10:49:01.186Z,38.50
2018-03-20T10:54:03.801Z,36.40
2018-03-20T10:59:06.419Z,36.20
2018-03-20T11:04:09.564Z,36.60
2018-03-20T11:09:12.150Z,35.00
2018-03-20T11:14:14.988Z,36.00
2018-03-20T11:19:17.836Z,34.50
2018-03-20T11:24:20.477Z,34.70
2018-03-20T11:29:23.046Z,33.90
2018-03-20T11:34:25.918Z,35.30
2018-03-20T11:39:29.048Z,33.90
2018-03-20T11:44:31.643Z,33.20
2018-03-20T11:49:34.248Z,30.90
2018-03-20T11:54:37.692Z,33.30
2018-03-20T11:59:41.049Z,35.10
2018-03-20T12:04:43.691Z,35.00
2018-03-20T12:09:51.835Z,34.30
2018-03-20T12:14:55.173Z,33.60
2018-03-20T12:19:57.758Z,33.50
2018-03-20T12:25:01.423Z,31.60
2018-03-20T12:30:04.174Z,31.50
2018-03-20T12:35:07.400Z,33.40
2018-03-20T12:40:11.039Z,33.90
2018-03-20T12:45:14.287Z,33.80
2018-03-20T12:50:17.266Z,31.40
2018-03-20T12:55:20.527Z,31.90
2018-03-20T13:00:24.334Z,29.90
2018-03-20T13:05:26.912Z,28.00
2018-03-20T13:10:30.325Z,29.10
2018-03-20T13:15:33.665Z,29.80
2018-03-20T13:20:36.242Z,29.80
2018-03-20T13:25:40.161Z,27.80
2018-03-20T13:30:43.092Z,27.70
2018-03-20T13:35:46.448Z,29.40
2018-03-20T13:40:49.635Z,29.30
2018-03-20T13:45:52.698Z,26.90
2018-03-20T13:50:58.678Z,27.90
2018-03-20T13:55:58.764Z,30.20
2018-03-20T14:01:01.408Z,28.40
2018-03-20T14:06:07.819Z,27.10
2018-03-20T14:11:10.418Z,26.00
2018-03-20T14:16:13.011Z,26.10
2018-03-20T14:21:15.621Z,25.30
2018-03-20T14:26:18.487Z,25.90
2018-03-20T14:31:21.077Z,25.40
2018-03-20T14:36:26.387Z,23.50
2018-03-20T14:41:29.761Z,25.50
2018-03-20T14:46:34.979Z,25.00
2018-03-20T14:51:38.329Z,24.80
2018-03-20T14:56:41.770Z,24.70
2018-03-20T15:01:44.380Z,24.80
2018-03-20T15:06:46.957Z,25.10
2018-03-20T15:11:50.144Z,24.20
2018-03-20T15:16:55.487Z,24.50
2018-03-20T15:21:58.718Z,25.20
2018-03-20T15:27:02.070Z,24.00
2018-03-20T15:32:05.310Z,24.00
2018-03-20T15:37:07.946Z,24.80
2018-03-20T15:42:10.576Z,25.20
2018-03-20T15:47:13.161Z,26.40
2018-03-20T15:52:15.845Z,27.20
2018-03-20T15:57:18.449Z,26.60
2018-03-20T16:02:21.782Z,28.00
2018-03-20T16:07:24.940Z,28.00
2018-03-20T16:12:28.289Z,29.00
2018-03-20T16:17:31.941Z,29.00
2018-03-20T16:22:34.805Z,28.90
2018-03-20T16:27:38.188Z,30.00
2018-03-20T16:32:41.094Z,29.70
2018-03-20T16:37:43.672Z,29.60
2018-03-20T16:42:46.277Z,30.60
2018-03-20T16:47:48.864Z,33.50
2018-03-20T16:52:53.028Z,35.10
2018-03-20T16:57:55.614Z,36.40
2018-03-20T17:02:58.823Z,41.40
2018-03-20T17:08:01.391Z,44.10
2018-03-20T17:13:04.765Z,48.20
2018-03-20T17:18:07.341Z,48.10
2018-03-20T17:23:09.928Z,50.90
2018-03-20T17:28:12.534Z,52.90
2018-03-20T17:33:15.117Z,54.10
2018-03-20T17:38:18.484Z,53.50
2018-03-20T17:43:21.705Z,53.40
2018-03-20T17:48:24.317Z,55.00
2018-03-20T17:53:27.350Z,54.80
2018-03-20T17:58:29.933Z,53.10
2018-03-20T18:03:32.760Z,52.50
2018-03-20T18:08:35.337Z,51.50
2018-03-20T18:13:39.126Z,54.00
2018-03-20T18:18:42.931Z,53.90
2018-03-20T18:23:46.290Z,56.50
2018-03-20T18:28:49.502Z,56.40
2018-03-20T18:33:57.875Z,57.10
2018-03-20T18:39:03.783Z,57.60
2018-03-20T18:44:10.486Z,59.10
2018-03-20T18:49:13.089Z,59.00
2018-03-20T18:54:15.681Z,59.30
2018-03-20T18:59:18.294Z,59.90
2018-03-20T19:04:21.338Z,60.30
2018-03-20T19:09:24.030Z,60.00
2018-03-20T19:14:29.236Z,59.50
2018-03-20T19:19:31.811Z,60.30
2018-03-20T19:24:35.079Z,61.10
2018-03-20T19:29:37.681Z,61.20
2018-03-20T19:34:40.737Z,61.80
2018-03-20T19:39:43.340Z,61.30
2018-03-20T19:44:45.934Z,62.20
2018-03-20T19:49:49.349Z,62.70
2018-03-20T19:54:56.030Z,63.10
2018-03-20T19:59:58.668Z,62.70
2018-03-20T20:05:01.527Z,63.70
2018-03-20T20:10:04.128Z,63.40
2018-03-20T20:15:06.746Z,63.40
2018-03-20T20:20:10.136Z,63.20
2018-03-20T20:25:12.746Z,63.00
2018-03-20T20:30:15.786Z,62.20
2018-03-20T20:35:20.975Z,62.30
2018-03-20T20:40:31.039Z,61.40
2018-03-20T20:45:33.929Z,61.30
2018-03-20T20:50:39.094Z,61.90
2018-03-20T20:55:42.272Z,61.50
2018-03-20T21:00:47.787Z,61.90
2018-03-20T21:05:51.147Z,61.70
2018-03-20T21:10:53.730Z,61.60
2018-03-20T21:15:56.789Z,62.00
2018-03-20T21:20:59.931Z,62.00
2018-03-20T21:26:04.488Z,61.90
2018-03-20T21:31:07.919Z,62.10
2018-03-20T21:36:10.953Z,62.00
2018-03-20T21:41:13.754Z,62.60
2018-03-20T21:46:17.006Z,62.70
2018-03-20T21:51:20.052Z,62.50
2018-03-20T21:56:23.743Z,63.10
2018-03-20T22:01:26.862Z,62.90
2018-03-20T22:06:29.446Z,63.10
2018-03-20T22:11:32.714Z,62.30
2018-03-20T22:16:37.234Z,62.50
2018-03-20T22:21:39.876Z,62.50
2018-03-20T22:26:42.458Z,62.50
2018-03-20T22:31:45.063Z,62.60
2018-03-20T22:36:48.334Z,62.60
2018-03-20T22:41:50.917Z,62.70
2018-03-20T22:46:54.134Z,62.60
2018-03-20T22:51:56.707Z,62.70
2018-03-20T22:57:00.852Z,62.60
2018-03-20T23:02:03.555Z,62.60
2018-03-20T23:07:06.450Z,62.50
2018-03-20T23:12:09.048Z,62.40
2018-03-20T23:17:11.638Z,63.10
2018-03-20T23:22:16.833Z,62.40
2018-03-20T23:27:19.884Z,62.60
2018-03-20T23:32:22.584Z,62.80
2018-03-20T23:37:25.259Z,63.60
2018-03-20T23:42:27.977Z,64.60
2018-03-20T23:47:30.776Z,64.00
2018-03-20T23:52:33.465Z,64.50
2018-03-20T23:57:36.143Z,64.20
